CPX438 Details

Departure: Philadelphia International Airport (KPHL)
Arrival: Chicago/Rockford International Airport (KRFD)
Route: PTW SARAA RAV PSB J60 JOT QUOTE


Current Weather Information
KPHL 212154Z 29009KT 10SM SCT150 BKN250 22/04 A3000 RMK AO2 SLP158 T02170039
KRFD 212154Z 08020G32KT 10SM OVC060 13/04 A2995 RMK AO2 PK WND 07032/2150 PRESFR SLP145 T01280044